sensor_id;sensor_type;location;lat;lon;timestamp;P1;durP1;ratioP1;P2;durP2;ratioP2
6259;SDS011;3163;51.516;4.000;2023-03-15T00:00:45;0.93;;;0.60;;
6259;SDS011;3163;51.516;4.000;2023-03-15T00:03:12;0.70;;;0.70;;
6259;SDS011;3163;51.516;4.000;2023-03-15T00:05:41;0.40;;;0.40;;
6259;SDS011;3163;51.516;4.000;2023-03-15T00:08:08;0.63;;;0.60;;
6259;SDS011;3163;51.516;4.000;2023-03-15T00:10:38;0.40;;;0.40;;
6259;SDS011;3163;51.516;4.000;2023-03-15T00:13:05;1.17;;;0.50;;
6259;SDS011;3163;51.516;4.000;2023-03-15T00:15:30;3.83;;;0.90;;
6259;SDS011;3163;51.516;4.000;2023-03-15T00:17:56;0.80;;;0.43;;
6259;SDS011;3163;51.516;4.000;2023-03-15T00:20:21;0.67;;;0.30;;
6259;SDS011;3163;51.516;4.000;2023-03-15T00:22:47;1.07;;;0.40;;
6259;SDS011;3163;51.516;4.000;2023-03-15T00:25:13;1.07;;;0.87;;
6259;SDS011;3163;51.516;4.000;2023-03-15T00:27:38;0.57;;;0.50;;
6259;SDS011;3163;51.516;4.000;2023-03-15T00:30:04;1.13;;;0.50;;
6259;SDS011;3163;51.516;4.000;2023-03-15T00:32:30;0.47;;;0.47;;
6259;SDS011;3163;51.516;4.000;2023-03-15T00:34:56;1.27;;;0.67;;
6259;SDS011;3163;51.516;4.000;2023-03-15T00:37:21;0.30;;;0.30;;
6259;SDS011;3163;51.516;4.000;2023-03-15T00:39:50;1.07;;;0.33;;
6259;SDS011;3163;51.516;4.000;2023-03-15T00:42:16;0.53;;;0.30;;
6259;SDS011;3163;51.516;4.000;2023-03-15T00:44:42;0.37;;;0.37;;
6259;SDS011;3163;51.516;4.000;2023-03-15T00:47:12;4.03;;;0.43;;
6259;SDS011;3163;51.516;4.000;2023-03-15T00:49:39;0.57;;;0.47;;
6259;SDS011;3163;51.516;4.000;2023-03-15T00:52:05;1.30;;;0.33;;
6259;SDS011;3163;51.516;4.000;2023-03-15T00:54:31;0.40;;;0.40;;
6259;SDS011;3163;51.516;4.000;2023-03-15T00:56:58;0.40;;;0.40;;
6259;SDS011;3163;51.516;4.000;2023-03-15T00:59:24;1.23;;;0.30;;
6259;SDS011;3163;51.516;4.000;2023-03-15T01:01:52;0.47;;;0.47;;
6259;SDS011;3163;51.516;4.000;2023-03-15T01:04:17;1.27;;;0.60;;
6259;SDS011;3163;51.516;4.000;2023-03-15T01:06:43;1.27;;;0.53;;
6259;SDS011;3163;51.516;4.000;2023-03-15T01:09:08;1.90;;;0.80;;
6259;SDS011;3163;51.516;4.000;2023-03-15T01:11:34;0.53;;;0.40;;
6259;SDS011;3163;51.516;4.000;2023-03-15T01:14:00;4.47;;;0.80;;
6259;SDS011;3163;51.516;4.000;2023-03-15T01:16:29;2.33;;;0.57;;
6259;SDS011;3163;51.516;4.000;2023-03-15T01:18:54;2.33;;;0.50;;
6259;SDS011;3163;51.516;4.000;2023-03-15T01:21:21;0.63;;;0.63;;
6259;SDS011;3163;51.516;4.000;2023-03-15T01:23:48;1.50;;;0.70;;
6259;SDS011;3163;51.516;4.000;2023-03-15T01:26:14;0.60;;;0.60;;
6259;SDS011;3163;51.516;4.000;2023-03-15T01:28:41;0.60;;;0.43;;
6259;SDS011;3163;51.516;4.000;2023-03-15T01:31:18;0.50;;;0.37;;
6259;SDS011;3163;51.516;4.000;2023-03-15T01:33:46;1.73;;;0.57;;
6259;SDS011;3163;51.516;4.000;2023-03-15T01:36:12;0.50;;;0.50;;
6259;SDS011;3163;51.516;4.000;2023-03-15T01:38:38;1.03;;;0.53;;
6259;SDS011;3163;51.516;4.000;2023-03-15T01:41:03;0.50;;;0.50;;
6259;SDS011;3163;51.516;4.000;2023-03-15T01:43:30;0.77;;;0.30;;
6259;SDS011;3163;51.516;4.000;2023-03-15T01:48:45;0.37;;;0.37;;
6259;SDS011;3163;51.516;4.000;2023-03-15T01:54:02;3.70;;;0.40;;
6259;SDS011;3163;51.516;4.000;2023-03-15T01:56:32;0.40;;;0.40;;
6259;SDS011;3163;51.516;4.000;2023-03-15T01:59:00;0.53;;;0.40;;
6259;SDS011;3163;51.516;4.000;2023-03-15T02:01:28;0.93;;;0.40;;
6259;SDS011;3163;51.516;4.000;2023-03-15T02:03:57;0.47;;;0.30;;
6259;SDS011;3163;51.516;4.000;2023-03-15T02:06:28;0.40;;;0.30;;
6259;SDS011;3163;51.516;4.000;2023-03-15T02:08:59;0.53;;;0.30;;
6259;SDS011;3163;51.516;4.000;2023-03-15T02:11:28;0.23;;;0.23;;
6259;SDS011;3163;51.516;4.000;2023-03-15T02:13:54;1.37;;;0.37;;
6259;SDS011;3163;51.516;4.000;2023-03-15T02:16:22;0.30;;;0.30;;
6259;SDS011;3163;51.516;4.000;2023-03-15T02:18:48;0.47;;;0.30;;
6259;SDS011;3163;51.516;4.000;2023-03-15T02:26:43;0.50;;;0.50;;
6259;SDS011;3163;51.516;4.000;2023-03-15T02:29:12;1.50;;;0.70;;
6259;SDS011;3163;51.516;4.000;2023-03-15T02:31:38;2.57;;;0.40;;
6259;SDS011;3163;51.516;4.000;2023-03-15T02:34:05;0.30;;;0.30;;
6259;SDS011;3163;51.516;4.000;2023-03-15T02:36:32;0.53;;;0.30;;
6259;SDS011;3163;51.516;4.000;2023-03-15T02:38:59;0.87;;;0.23;;
6259;SDS011;3163;51.516;4.000;2023-03-15T02:41:27;0.63;;;0.30;;
6259;SDS011;3163;51.516;4.000;2023-03-15T02:44:15;1.40;;;0.40;;
6259;SDS011;3163;51.516;4.000;2023-03-15T02:46:47;0.30;;;0.30;;
6259;SDS011;3163;51.516;4.000;2023-03-15T02:49:16;1.03;;;0.70;;
6259;SDS011;3163;51.516;4.000;2023-03-15T02:51:45;1.13;;;0.30;;
6259;SDS011;3163;51.516;4.000;2023-03-15T02:54:11;2.53;;;0.50;;
6259;SDS011;3163;51.516;4.000;2023-03-15T02:56:36;0.87;;;0.40;;
6259;SDS011;3163;51.516;4.000;2023-03-15T02:59:02;0.30;;;0.30;;
6259;SDS011;3163;51.516;4.000;2023-03-15T03:01:28;1.70;;;0.50;;
6259;SDS011;3163;51.516;4.000;2023-03-15T03:03:53;2.03;;;0.27;;
6259;SDS011;3163;51.516;4.000;2023-03-15T03:06:19;0.30;;;0.30;;
6259;SDS011;3163;51.516;4.000;2023-03-15T03:08:44;0.30;;;0.30;;
6259;SDS011;3163;51.516;4.000;2023-03-15T03:11:14;0.30;;;0.30;;
6259;SDS011;3163;51.516;4.000;2023-03-15T03:13:40;0.40;;;0.40;;
6259;SDS011;3163;51.516;4.000;2023-03-15T03:16:07;0.37;;;0.30;;
6259;SDS011;3163;51.516;4.000;2023-03-15T03:18:33;0.20;;;0.20;;
6259;SDS011;3163;51.516;4.000;2023-03-15T03:21:00;0.57;;;0.40;;
6259;SDS011;3163;51.516;4.000;2023-03-15T03:23:28;0.30;;;0.30;;
6259;SDS011;3163;51.516;4.000;2023-03-15T03:25:55;0.40;;;0.40;;
6259;SDS011;3163;51.516;4.000;2023-03-15T03:28:22;1.67;;;0.40;;
6259;SDS011;3163;51.516;4.000;2023-03-15T03:30:50;1.37;;;0.30;;
6259;SDS011;3163;51.516;4.000;2023-03-15T03:33:16;0.40;;;0.40;;
6259;SDS011;3163;51.516;4.000;2023-03-15T03:35:42;0.40;;;0.40;;
6259;SDS011;3163;51.516;4.000;2023-03-15T03:38:08;0.87;;;0.33;;
6259;SDS011;3163;51.516;4.000;2023-03-15T03:40:35;1.60;;;0.30;;
6259;SDS011;3163;51.516;4.000;2023-03-15T03:43:01;3.53;;;0.60;;
6259;SDS011;3163;51.516;4.000;2023-03-15T03:45:27;0.40;;;0.40;;
6259;SDS011;3163;51.516;4.000;2023-03-15T03:47:53;0.30;;;0.30;;
6259;SDS011;3163;51.516;4.000;2023-03-15T03:50:19;0.20;;;0.20;;
6259;SDS011;3163;51.516;4.000;2023-03-15T03:52:45;0.20;;;0.20;;
6259;SDS011;3163;51.516;4.000;2023-03-15T03:55:11;0.50;;;0.50;;
6259;SDS011;3163;51.516;4.000;2023-03-15T03:57:38;0.67;;;0.53;;
6259;SDS011;3163;51.516;4.000;2023-03-15T04:00:07;0.60;;;0.60;;
6259;SDS011;3163;51.516;4.000;2023-03-15T04:02:34;0.67;;;0.30;;
6259;SDS011;3163;51.516;4.000;2023-03-15T04:05:00;0.60;;;0.40;;
6259;SDS011;3163;51.516;4.000;2023-03-15T04:07:25;0.30;;;0.30;;
6259;SDS011;3163;51.516;4.000;2023-03-15T04:09:51;0.20;;;0.20;;
6259;SDS011;3163;51.516;4.000;2023-03-15T04:12:17;0.30;;;0.10;;
6259;SDS011;3163;51.516;4.000;2023-03-15T04:14:43;1.43;;;0.70;;
6259;SDS011;3163;51.516;4.000;2023-03-15T04:17:08;1.70;;;0.90;;
6259;SDS011;3163;51.516;4.000;2023-03-15T04:19:34;0.20;;;0.20;;
6259;SDS011;3163;51.516;4.000;2023-03-15T04:22:00;0.30;;;0.30;;
6259;SDS011;3163;51.516;4.000;2023-03-15T04:24:31;0.60;;;0.43;;
6259;SDS011;3163;51.516;4.000;2023-03-15T04:26:58;0.80;;;0.40;;
6259;SDS011;3163;51.516;4.000;2023-03-15T04:29:24;0.57;;;0.30;;
6259;SDS011;3163;51.516;4.000;2023-03-15T04:31:50;0.77;;;0.30;;
6259;SDS011;3163;51.516;4.000;2023-03-15T04:34:15;0.30;;;0.30;;
6259;SDS011;3163;51.516;4.000;2023-03-15T04:36:41;0.53;;;0.53;;
6259;SDS011;3163;51.516;4.000;2023-03-15T04:39:07;0.70;;;0.60;;
6259;SDS011;3163;51.516;4.000;2023-03-15T04:41:34;0.40;;;0.30;;
6259;SDS011;3163;51.516;4.000;2023-03-15T04:44:03;3.77;;;0.57;;
6259;SDS011;3163;51.516;4.000;2023-03-15T04:46:32;1.20;;;0.60;;
6259;SDS011;3163;51.516;4.000;2023-03-15T04:48:58;2.80;;;0.30;;
6259;SDS011;3163;51.516;4.000;2023-03-15T04:51:24;0.40;;;0.40;;
6259;SDS011;3163;51.516;4.000;2023-03-15T04:53:50;0.50;;;0.23;;
6259;SDS011;3163;51.516;4.000;2023-03-15T04:56:16;0.40;;;0.40;;
6259;SDS011;3163;51.516;4.000;2023-03-15T04:58:41;0.30;;;0.30;;
6259;SDS011;3163;51.516;4.000;2023-03-15T05:01:07;0.90;;;0.47;;
6259;SDS011;3163;51.516;4.000;2023-03-15T05:03:32;0.60;;;0.60;;
6259;SDS011;3163;51.516;4.000;2023-03-15T05:06:00;0.43;;;0.40;;
6259;SDS011;3163;51.516;4.000;2023-03-15T05:08:32;0.47;;;0.30;;
6259;SDS011;3163;51.516;4.000;2023-03-15T05:10:58;0.30;;;0.20;;
6259;SDS011;3163;51.516;4.000;2023-03-15T05:13:24;0.73;;;0.50;;
6259;SDS011;3163;51.516;4.000;2023-03-15T05:15:50;0.50;;;0.50;;
6259;SDS011;3163;51.516;4.000;2023-03-15T05:18:15;0.27;;;0.23;;
6259;SDS011;3163;51.516;4.000;2023-03-15T05:20:41;0.27;;;0.27;;
6259;SDS011;3163;51.516;4.000;2023-03-15T05:23:06;0.30;;;0.30;;
6259;SDS011;3163;51.516;4.000;2023-03-15T05:25:32;2.00;;;0.40;;
6259;SDS011;3163;51.516;4.000;2023-03-15T05:27:58;0.40;;;0.40;;
6259;SDS011;3163;51.516;4.000;2023-03-15T05:30:23;0.53;;;0.27;;
6259;SDS011;3163;51.516;4.000;2023-03-15T05:32:49;1.13;;;0.30;;
6259;SDS011;3163;51.516;4.000;2023-03-15T05:35:15;0.30;;;0.30;;
6259;SDS011;3163;51.516;4.000;2023-03-15T05:37:41;1.00;;;0.70;;
6259;SDS011;3163;51.516;4.000;2023-03-15T05:40:06;0.50;;;0.50;;
6259;SDS011;3163;51.516;4.000;2023-03-15T05:42:33;0.30;;;0.30;;
6259;SDS011;3163;51.516;4.000;2023-03-15T05:44:59;0.37;;;0.37;;
6259;SDS011;3163;51.516;4.000;2023-03-15T05:47:24;0.40;;;0.40;;
6259;SDS011;3163;51.516;4.000;2023-03-15T05:49:50;0.37;;;0.37;;
6259;SDS011;3163;51.516;4.000;2023-03-15T05:52:17;1.30;;;0.30;;
6259;SDS011;3163;51.516;4.000;2023-03-15T05:54:43;0.67;;;0.33;;
6259;SDS011;3163;51.516;4.000;2023-03-15T05:57:09;0.80;;;0.43;;
6259;SDS011;3163;51.516;4.000;2023-03-15T05:59:35;0.30;;;0.30;;
6259;SDS011;3163;51.516;4.000;2023-03-15T06:02:01;0.20;;;0.20;;
6259;SDS011;3163;51.516;4.000;2023-03-15T06:04:27;0.30;;;0.30;;
6259;SDS011;3163;51.516;4.000;2023-03-15T06:06:53;0.30;;;0.30;;
6259;SDS011;3163;51.516;4.000;2023-03-15T06:09:19;0.30;;;0.30;;
6259;SDS011;3163;51.516;4.000;2023-03-15T06:11:44;0.20;;;0.20;;
6259;SDS011;3163;51.516;4.000;2023-03-15T06:14:10;1.23;;;0.70;;
6259;SDS011;3163;51.516;4.000;2023-03-15T06:16:35;1.70;;;0.40;;
6259;SDS011;3163;51.516;4.000;2023-03-15T06:19:01;0.30;;;0.30;;
6259;SDS011;3163;51.516;4.000;2023-03-15T06:21:27;1.80;;;0.30;;
6259;SDS011;3163;51.516;4.000;2023-03-15T06:23:53;0.80;;;0.60;;
6259;SDS011;3163;51.516;4.000;2023-03-15T06:26:18;0.50;;;0.50;;
6259;SDS011;3163;51.516;4.000;2023-03-15T06:28:44;0.47;;;0.47;;
6259;SDS011;3163;51.516;4.000;2023-03-15T06:31:11;0.70;;;0.40;;
6259;SDS011;3163;51.516;4.000;2023-03-15T06:33:37;0.40;;;0.40;;
6259;SDS011;3163;51.516;4.000;2023-03-15T06:36:04;0.30;;;0.30;;
6259;SDS011;3163;51.516;4.000;2023-03-15T06:38:30;0.40;;;0.40;;
6259;SDS011;3163;51.516;4.000;2023-03-15T06:40:56;0.20;;;0.20;;
6259;SDS011;3163;51.516;4.000;2023-03-15T06:43:24;0.60;;;0.60;;
6259;SDS011;3163;51.516;4.000;2023-03-15T06:45:50;0.63;;;0.40;;
6259;SDS011;3163;51.516;4.000;2023-03-15T06:48:17;0.30;;;0.30;;
6259;SDS011;3163;51.516;4.000;2023-03-15T06:50:43;0.20;;;0.20;;
6259;SDS011;3163;51.516;4.000;2023-03-15T06:53:08;0.23;;;0.23;;
6259;SDS011;3163;51.516;4.000;2023-03-15T06:55:34;0.20;;;0.20;;
6259;SDS011;3163;51.516;4.000;2023-03-15T06:58:00;0.20;;;0.20;;
6259;SDS011;3163;51.516;4.000;2023-03-15T07:00:25;0.10;;;0.10;;
6259;SDS011;3163;51.516;4.000;2023-03-15T07:02:51;1.00;;;0.53;;
6259;SDS011;3163;51.516;4.000;2023-03-15T07:05:16;1.60;;;0.50;;
6259;SDS011;3163;51.516;4.000;2023-03-15T07:07:42;1.70;;;0.20;;
6259;SDS011;3163;51.516;4.000;2023-03-15T07:10:08;2.30;;;0.33;;
6259;SDS011;3163;51.516;4.000;2023-03-15T07:12:34;1.50;;;0.27;;
6259;SDS011;3163;51.516;4.000;2023-03-15T07:15:00;0.60;;;0.60;;
6259;SDS011;3163;51.516;4.000;2023-03-15T07:17:25;0.30;;;0.30;;
6259;SDS011;3163;51.516;4.000;2023-03-15T07:19:51;0.63;;;0.40;;
6259;SDS011;3163;51.516;4.000;2023-03-15T07:22:16;0.30;;;0.30;;
6259;SDS011;3163;51.516;4.000;2023-03-15T07:24:42;1.07;;;0.37;;
6259;SDS011;3163;51.516;4.000;2023-03-15T07:27:11;0.27;;;0.27;;
6259;SDS011;3163;51.516;4.000;2023-03-15T07:29:37;1.67;;;0.40;;
6259;SDS011;3163;51.516;4.000;2023-03-15T07:32:03;0.47;;;0.47;;
6259;SDS011;3163;51.516;4.000;2023-03-15T07:34:29;0.30;;;0.30;;
6259;SDS011;3163;51.516;4.000;2023-03-15T07:36:54;0.60;;;0.60;;
6259;SDS011;3163;51.516;4.000;2023-03-15T07:39:20;0.40;;;0.40;;
6259;SDS011;3163;51.516;4.000;2023-03-15T07:41:47;0.83;;;0.30;;
6259;SDS011;3163;51.516;4.000;2023-03-15T07:44:13;0.40;;;0.30;;
6259;SDS011;3163;51.516;4.000;2023-03-15T07:46:38;0.33;;;0.33;;
6259;SDS011;3163;51.516;4.000;2023-03-15T07:49:04;1.17;;;0.30;;
6259;SDS011;3163;51.516;4.000;2023-03-15T07:51:30;0.40;;;0.37;;
6259;SDS011;3163;51.516;4.000;2023-03-15T07:53:56;0.40;;;0.40;;
6259;SDS011;3163;51.516;4.000;2023-03-15T07:56:21;2.53;;;0.30;;
6259;SDS011;3163;51.516;4.000;2023-03-15T07:58:47;2.93;;;0.40;;
6259;SDS011;3163;51.516;4.000;2023-03-15T08:01:12;0.20;;;0.20;;
6259;SDS011;3163;51.516;4.000;2023-03-15T08:03:38;0.23;;;0.23;;
6259;SDS011;3163;51.516;4.000;2023-03-15T08:06:04;0.30;;;0.30;;
6259;SDS011;3163;51.516;4.000;2023-03-15T08:08:29;0.33;;;0.33;;
6259;SDS011;3163;51.516;4.000;2023-03-15T08:10:55;0.10;;;0.10;;
6259;SDS011;3163;51.516;4.000;2023-03-15T08:13:21;1.57;;;0.50;;
6259;SDS011;3163;51.516;4.000;2023-03-15T08:15:46;0.23;;;0.10;;
6259;SDS011;3163;51.516;4.000;2023-03-15T08:18:12;0.27;;;0.27;;
6259;SDS011;3163;51.516;4.000;2023-03-15T08:20:38;0.73;;;0.40;;
6259;SDS011;3163;51.516;4.000;2023-03-15T08:23:04;0.40;;;0.20;;
6259;SDS011;3163;51.516;4.000;2023-03-15T08:25:30;0.20;;;0.20;;
6259;SDS011;3163;51.516;4.000;2023-03-15T08:27:56;0.30;;;0.23;;
6259;SDS011;3163;51.516;4.000;2023-03-15T08:30:22;0.33;;;0.30;;
6259;SDS011;3163;51.516;4.000;2023-03-15T08:32:48;1.97;;;0.43;;
6259;SDS011;3163;51.516;4.000;2023-03-15T08:35:16;0.30;;;0.30;;
6259;SDS011;3163;51.516;4.000;2023-03-15T08:37:42;0.60;;;0.27;;
6259;SDS011;3163;51.516;4.000;2023-03-15T08:40:12;0.43;;;0.43;;
6259;SDS011;3163;51.516;4.000;2023-03-15T08:42:42;0.30;;;0.30;;
6259;SDS011;3163;51.516;4.000;2023-03-15T08:45:08;0.37;;;0.30;;
6259;SDS011;3163;51.516;4.000;2023-03-15T08:47:35;0.30;;;0.30;;
6259;SDS011;3163;51.516;4.000;2023-03-15T08:50:01;0.37;;;0.37;;
6259;SDS011;3163;51.516;4.000;2023-03-15T08:52:29;0.27;;;0.27;;
6259;SDS011;3163;51.516;4.000;2023-03-15T08:54:56;0.23;;;0.23;;
6259;SDS011;3163;51.516;4.000;2023-03-15T08:57:22;0.77;;;0.20;;
6259;SDS011;3163;51.516;4.000;2023-03-15T08:59:50;0.70;;;0.30;;
6259;SDS011;3163;51.516;4.000;2023-03-15T09:02:20;0.20;;;0.20;;
6259;SDS011;3163;51.516;4.000;2023-03-15T09:04:47;0.33;;;0.30;;
6259;SDS011;3163;51.516;4.000;2023-03-15T09:07:12;0.33;;;0.33;;
6259;SDS011;3163;51.516;4.000;2023-03-15T09:09:39;0.20;;;0.20;;
6259;SDS011;3163;51.516;4.000;2023-03-15T09:12:05;1.70;;;0.30;;
6259;SDS011;3163;51.516;4.000;2023-03-15T09:14:31;1.57;;;0.30;;
6259;SDS011;3163;51.516;4.000;2023-03-15T09:16:57;1.03;;;0.50;;
6259;SDS011;3163;51.516;4.000;2023-03-15T09:19:22;0.87;;;0.40;;
6259;SDS011;3163;51.516;4.000;2023-03-15T09:21:48;0.87;;;0.40;;
6259;SDS011;3163;51.516;4.000;2023-03-15T09:24:13;0.43;;;0.40;;
6259;SDS011;3163;51.516;4.000;2023-03-15T09:26:39;0.60;;;0.47;;
6259;SDS011;3163;51.516;4.000;2023-03-15T09:29:05;0.30;;;0.30;;
6259;SDS011;3163;51.516;4.000;2023-03-15T09:31:33;1.03;;;0.30;;
6259;SDS011;3163;51.516;4.000;2023-03-15T09:33:59;0.33;;;0.33;;
6259;SDS011;3163;51.516;4.000;2023-03-15T09:36:25;0.63;;;0.30;;
6259;SDS011;3163;51.516;4.000;2023-03-15T09:38:50;1.53;;;0.50;;
6259;SDS011;3163;51.516;4.000;2023-03-15T09:41:31;1.37;;;0.27;;
6259;SDS011;3163;51.516;4.000;2023-03-15T09:47:31;0.40;;;0.40;;
6259;SDS011;3163;51.516;4.000;2023-03-15T09:49:43;0.30;;;0.30;;
6259;SDS011;3163;51.516;4.000;2023-03-15T09:54:58;0.10;;;0.10;;
6259;SDS011;3163;51.516;4.000;2023-03-15T10:00:00;0.37;;;0.37;;
6259;SDS011;3163;51.516;4.000;2023-03-15T10:02:30;1.70;;;0.53;;
6259;SDS011;3163;51.516;4.000;2023-03-15T10:05:06;0.57;;;0.40;;
6259;SDS011;3163;51.516;4.000;2023-03-15T10:07:36;1.23;;;0.40;;
6259;SDS011;3163;51.516;4.000;2023-03-15T10:10:02;0.23;;;0.23;;
6259;SDS011;3163;51.516;4.000;2023-03-15T10:12:33;0.67;;;0.47;;
6259;SDS011;3163;51.516;4.000;2023-03-15T10:18:06;0.50;;;0.50;;
6259;SDS011;3163;51.516;4.000;2023-03-15T10:20:46;0.30;;;0.30;;
6259;SDS011;3163;51.516;4.000;2023-03-15T10:23:18;1.17;;;0.33;;
6259;SDS011;3163;51.516;4.000;2023-03-15T10:25:48;0.40;;;0.40;;
6259;SDS011;3163;51.516;4.000;2023-03-15T10:30:52;0.40;;;0.40;;
6259;SDS011;3163;51.516;4.000;2023-03-15T10:33:31;2.33;;;0.43;;
6259;SDS011;3163;51.516;4.000;2023-03-15T10:36:00;0.50;;;0.50;;
6259;SDS011;3163;51.516;4.000;2023-03-15T10:38:28;0.53;;;0.40;;
6259;SDS011;3163;51.516;4.000;2023-03-15T10:40:57;0.73;;;0.53;;
6259;SDS011;3163;51.516;4.000;2023-03-15T10:43:28;1.27;;;0.70;;
6259;SDS011;3163;51.516;4.000;2023-03-15T10:48:30;1.13;;;0.60;;
6259;SDS011;3163;51.516;4.000;2023-03-15T10:51:00;1.87;;;0.60;;
6259;SDS011;3163;51.516;4.000;2023-03-15T10:53:55;0.83;;;0.40;;
6259;SDS011;3163;51.516;4.000;2023-03-15T10:56:31;0.50;;;0.30;;
6259;SDS011;3163;51.516;4.000;2023-03-15T10:59:01;1.73;;;0.37;;
6259;SDS011;3163;51.516;4.000;2023-03-15T11:01:30;0.53;;;0.53;;
6259;SDS011;3163;51.516;4.000;2023-03-15T11:04:08;0.43;;;0.30;;
6259;SDS011;3163;51.516;4.000;2023-03-15T11:09:11;0.50;;;0.40;;
6259;SDS011;3163;51.516;4.000;2023-03-15T11:11:51;0.40;;;0.37;;
6259;SDS011;3163;51.516;4.000;2023-03-15T11:14:32;1.43;;;0.50;;
6259;SDS011;3163;51.516;4.000;2023-03-15T11:16:58;1.10;;;0.50;;
6259;SDS011;3163;51.516;4.000;2023-03-15T11:19:28;0.27;;;0.23;;
6259;SDS011;3163;51.516;4.000;2023-03-15T11:21:56;0.57;;;0.40;;
6259;SDS011;3163;51.516;4.000;2023-03-15T11:24:26;1.13;;;0.63;;
6259;SDS011;3163;51.516;4.000;2023-03-15T11:27:00;0.43;;;0.33;;
6259;SDS011;3163;51.516;4.000;2023-03-15T11:29:31;1.20;;;0.90;;
6259;SDS011;3163;51.516;4.000;2023-03-15T11:32:00;0.80;;;0.67;;
6259;SDS011;3163;51.516;4.000;2023-03-15T11:34:36;0.53;;;0.30;;
6259;SDS011;3163;51.516;4.000;2023-03-15T11:37:04;0.37;;;0.37;;
6259;SDS011;3163;51.516;4.000;2023-03-15T11:39:50;0.40;;;0.40;;
6259;SDS011;3163;51.516;4.000;2023-03-15T11:42:27;1.13;;;0.30;;
6259;SDS011;3163;51.516;4.000;2023-03-15T11:44:58;2.53;;;0.60;;
6259;SDS011;3163;51.516;4.000;2023-03-15T11:48:13;2.43;;;0.50;;
6259;SDS011;3163;51.516;4.000;2023-03-15T11:50:19;0.43;;;0.23;;
6259;SDS011;3163;51.516;4.000;2023-03-15T11:52:49;2.37;;;0.40;;
6259;SDS011;3163;51.516;4.000;2023-03-15T11:55:16;2.37;;;1.10;;
6259;SDS011;3163;51.516;4.000;2023-03-15T11:57:46;0.83;;;0.50;;
6259;SDS011;3163;51.516;4.000;2023-03-15T12:00:24;0.30;;;0.30;;
6259;SDS011;3163;51.516;4.000;2023-03-15T12:02:58;1.40;;;0.40;;
6259;SDS011;3163;51.516;4.000;2023-03-15T12:08:41;0.87;;;0.70;;
6259;SDS011;3163;51.516;4.000;2023-03-15T12:16:21;0.53;;;0.30;;
6259;SDS011;3163;51.516;4.000;2023-03-15T12:18:49;1.33;;;0.50;;
6259;SDS011;3163;51.516;4.000;2023-03-15T12:21:18;0.70;;;0.70;;
6259;SDS011;3163;51.516;4.000;2023-03-15T12:23:56;1.17;;;0.60;;
6259;SDS011;3163;51.516;4.000;2023-03-15T12:29:22;1.90;;;0.30;;
6259;SDS011;3163;51.516;4.000;2023-03-15T12:32:10;0.33;;;0.33;;
6259;SDS011;3163;51.516;4.000;2023-03-15T12:37:07;1.17;;;0.40;;
6259;SDS011;3163;51.516;4.000;2023-03-15T12:39:42;2.37;;;1.17;;
6259;SDS011;3163;51.516;4.000;2023-03-15T12:42:57;2.13;;;0.60;;
6259;SDS011;3163;51.516;4.000;2023-03-15T12:52:59;0.67;;;0.67;;
6259;SDS011;3163;51.516;4.000;2023-03-15T12:55:27;0.80;;;0.80;;
6259;SDS011;3163;51.516;4.000;2023-03-15T12:57:56;0.73;;;0.73;;
6259;SDS011;3163;51.516;4.000;2023-03-15T13:00:24;0.60;;;0.60;;
6259;SDS011;3163;51.516;4.000;2023-03-15T13:03:04;2.77;;;0.57;;
6259;SDS011;3163;51.516;4.000;2023-03-15T13:05:32;1.17;;;1.07;;
6259;SDS011;3163;51.516;4.000;2023-03-15T13:08:23;4.70;;;1.40;;
6259;SDS011;3163;51.516;4.000;2023-03-15T13:15:54;2.00;;;1.80;;
6259;SDS011;3163;51.516;4.000;2023-03-15T13:18:23;1.63;;;1.53;;
6259;SDS011;3163;51.516;4.000;2023-03-15T13:23:30;1.33;;;0.70;;
6259;SDS011;3163;51.516;4.000;2023-03-15T13:28:46;1.13;;;0.60;;
6259;SDS011;3163;51.516;4.000;2023-03-15T13:31:24;0.90;;;0.90;;
6259;SDS011;3163;51.516;4.000;2023-03-15T13:33:55;2.20;;;0.80;;
6259;SDS011;3163;51.516;4.000;2023-03-15T13:36:26;0.97;;;0.60;;
6259;SDS011;3163;51.516;4.000;2023-03-15T13:39:31;1.07;;;1.00;;
6259;SDS011;3163;51.516;4.000;2023-03-15T13:41:57;0.57;;;0.57;;
6259;SDS011;3163;51.516;4.000;2023-03-15T13:44:31;5.03;;;1.20;;
6259;SDS011;3163;51.516;4.000;2023-03-15T13:46:58;0.90;;;0.60;;
6259;SDS011;3163;51.516;4.000;2023-03-15T13:49:24;4.57;;;1.90;;
6259;SDS011;3163;51.516;4.000;2023-03-15T13:51:54;0.60;;;0.60;;
6259;SDS011;3163;51.516;4.000;2023-03-15T13:54:23;3.17;;;1.10;;
6259;SDS011;3163;51.516;4.000;2023-03-15T13:57:11;1.77;;;0.90;;
6259;SDS011;3163;51.516;4.000;2023-03-15T14:02:17;1.00;;;0.93;;
6259;SDS011;3163;51.516;4.000;2023-03-15T14:04:51;0.63;;;0.63;;
6259;SDS011;3163;51.516;4.000;2023-03-15T14:07:27;0.77;;;0.70;;
6259;SDS011;3163;51.516;4.000;2023-03-15T14:10:20;0.73;;;0.70;;
6259;SDS011;3163;51.516;4.000;2023-03-15T14:13:16;1.97;;;1.20;;
6259;SDS011;3163;51.516;4.000;2023-03-15T14:15:53;0.63;;;0.63;;
6259;SDS011;3163;51.516;4.000;2023-03-15T14:18:22;1.37;;;1.27;;
6259;SDS011;3163;51.516;4.000;2023-03-15T14:20:55;0.70;;;0.67;;
6259;SDS011;3163;51.516;4.000;2023-03-15T14:23:27;0.70;;;0.70;;
6259;SDS011;3163;51.516;4.000;2023-03-15T14:25:54;1.87;;;1.07;;
6259;SDS011;3163;51.516;4.000;2023-03-15T14:28:26;2.00;;;0.80;;
6259;SDS011;3163;51.516;4.000;2023-03-15T14:30:53;0.77;;;0.77;;
6259;SDS011;3163;51.516;4.000;2023-03-15T14:33:29;1.50;;;1.40;;
6259;SDS011;3163;51.516;4.000;2023-03-15T14:36:02;1.63;;;1.00;;
6259;SDS011;3163;51.516;4.000;2023-03-15T14:38:34;1.40;;;0.87;;
6259;SDS011;3163;51.516;4.000;2023-03-15T14:41:18;1.67;;;0.90;;
6259;SDS011;3163;51.516;4.000;2023-03-15T14:43:49;0.90;;;0.90;;
6259;SDS011;3163;51.516;4.000;2023-03-15T14:46:15;4.93;;;1.10;;
6259;SDS011;3163;51.516;4.000;2023-03-15T14:48:41;1.00;;;0.90;;
6259;SDS011;3163;51.516;4.000;2023-03-15T14:51:09;1.87;;;0.87;;
6259;SDS011;3163;51.516;4.000;2023-03-15T14:53:41;1.07;;;0.97;;
6259;SDS011;3163;51.516;4.000;2023-03-15T14:56:10;1.87;;;1.00;;
6259;SDS011;3163;51.516;4.000;2023-03-15T14:58:37;1.20;;;0.90;;
6259;SDS011;3163;51.516;4.000;2023-03-15T15:01:02;0.93;;;0.93;;
6259;SDS011;3163;51.516;4.000;2023-03-15T15:06:09;2.00;;;1.20;;
6259;SDS011;3163;51.516;4.000;2023-03-15T15:08:38;2.97;;;1.00;;
6259;SDS011;3163;51.516;4.000;2023-03-15T15:11:07;1.00;;;0.80;;
6259;SDS011;3163;51.516;4.000;2023-03-15T15:13:33;1.67;;;0.90;;
6259;SDS011;3163;51.516;4.000;2023-03-15T15:15:59;0.83;;;0.83;;
6259;SDS011;3163;51.516;4.000;2023-03-15T15:18:26;0.70;;;0.70;;
6259;SDS011;3163;51.516;4.000;2023-03-15T15:20:54;1.30;;;1.20;;
6259;SDS011;3163;51.516;4.000;2023-03-15T15:23:28;1.67;;;1.10;;
6259;SDS011;3163;51.516;4.000;2023-03-15T15:25:59;2.63;;;1.27;;
6259;SDS011;3163;51.516;4.000;2023-03-15T15:28:27;1.50;;;0.93;;
6259;SDS011;3163;51.516;4.000;2023-03-15T15:30:53;2.40;;;1.00;;
6259;SDS011;3163;51.516;4.000;2023-03-15T15:33:19;0.63;;;0.63;;
6259;SDS011;3163;51.516;4.000;2023-03-15T15:35:47;1.70;;;1.10;;
6259;SDS011;3163;51.516;4.000;2023-03-15T15:38:29;1.43;;;0.90;;
6259;SDS011;3163;51.516;4.000;2023-03-15T15:40:58;3.33;;;1.23;;
6259;SDS011;3163;51.516;4.000;2023-03-15T15:43:24;1.50;;;1.00;;
6259;SDS011;3163;51.516;4.000;2023-03-15T15:45:49;0.70;;;0.70;;
6259;SDS011;3163;51.516;4.000;2023-03-15T15:48:15;0.80;;;0.80;;
6259;SDS011;3163;51.516;4.000;2023-03-15T15:50:40;0.80;;;0.80;;
6259;SDS011;3163;51.516;4.000;2023-03-15T15:53:09;0.40;;;0.40;;
6259;SDS011;3163;51.516;4.000;2023-03-15T15:55:40;1.50;;;1.10;;
6259;SDS011;3163;51.516;4.000;2023-03-15T15:58:05;1.17;;;0.83;;
6259;SDS011;3163;51.516;4.000;2023-03-15T16:00:35;0.80;;;0.70;;
6259;SDS011;3163;51.516;4.000;2023-03-15T16:03:01;1.00;;;1.00;;
6259;SDS011;3163;51.516;4.000;2023-03-15T16:05:27;0.70;;;0.70;;
6259;SDS011;3163;51.516;4.000;2023-03-15T16:07:55;0.80;;;0.80;;
6259;SDS011;3163;51.516;4.000;2023-03-15T16:10:26;1.27;;;0.70;;
6259;SDS011;3163;51.516;4.000;2023-03-15T16:13:01;0.90;;;0.90;;
6259;SDS011;3163;51.516;4.000;2023-03-15T16:15:28;1.43;;;0.80;;
6259;SDS011;3163;51.516;4.000;2023-03-15T16:17:57;0.60;;;0.60;;
6259;SDS011;3163;51.516;4.000;2023-03-15T16:20:22;0.70;;;0.70;;
6259;SDS011;3163;51.516;4.000;2023-03-15T16:22:48;1.60;;;0.77;;
6259;SDS011;3163;51.516;4.000;2023-03-15T16:25:20;4.00;;;0.80;;
6259;SDS011;3163;51.516;4.000;2023-03-15T16:27:51;0.50;;;0.50;;
6259;SDS011;3163;51.516;4.000;2023-03-15T16:30:22;2.03;;;1.50;;